Time;durP1;ratioP1;P1;durP2;ratioP2;P2;SDS_P1;SDS_P2;PMS_P1;PMS_P2;Temp;Humidity;BMP_temperature;BMP_pressure;BME280_temperature;BME280_humidity;BME280_pressure;Samples;Min_cycle;Max_cycle;Signal;HPM_P1;HPM_P2
2022/06/14 00:01:39;;;;;;;3.50;2.53;;;;;;;;;;4995731;28;20029;-79
2022/06/14 00:04:05;;;;;;;10.73;2.60;;;;;;;;;;4994836;28;20033;-80
2022/06/14 00:06:33;;;;;;;5.25;2.28;;;;;;;;;;4994721;28;20076;-80
2022/06/14 00:09:00;;;;;;;7.45;2.15;;;;;;;;;;4994883;28;20410;-80
2022/06/14 00:11:31;;;;;;;4.30;2.50;;;;;;;;;;4994787;28;20376;-80
2022/06/14 00:13:58;;;;;;;4.35;2.50;;;;;;;;;;4995074;28;20089;-80
2022/06/14 00:16:25;;;;;;;5.25;2.30;;;;;;;;;;4993960;28;20056;-79
2022/06/14 00:18:51;;;;;;;2.70;1.90;;;;;;;;;;4994728;28;20018;-80
2022/06/14 00:21:18;;;;;;;6.88;2.28;;;;;;;;;;4994304;28;20030;-80
2022/06/14 00:23:45;;;;;;;4.80;2.10;;;;;;;;;;4994471;28;20042;-80
2022/06/14 00:26:12;;;;;;;5.60;2.35;;;;;;;;;;4994652;28;20096;-79
2022/06/14 00:28:39;;;;;;;6.68;2.38;;;;;;;;;;4995048;28;20030;-80
2022/06/14 00:31:19;;;;;;;3.53;2.10;;;;;;;;;;4994681;28;20034;-80
2022/06/14 00:33:46;;;;;;;4.57;2.37;;;;;;;;;;4994083;28;20034;-79
2022/06/14 00:36:23;;;;;;;4.32;2.30;;;;;;;;;;4994360;28;20403;-80
2022/06/14 00:38:49;;;;;;;3.92;2.10;;;;;;;;;;4994450;28;20014;-80
2022/06/14 00:41:25;;;;;;;4.35;2.20;;;;;;;;;;4994685;28;20014;-80
2022/06/14 00:43:51;;;;;;;9.38;2.70;;;;;;;;;;4994483;28;20037;-80
2022/06/14 00:46:21;;;;;;;5.25;2.40;;;;;;;;;;4994759;28;20054;-80
2022/06/14 00:48:50;;;;;;;4.43;2.13;;;;;;;;;;4993742;28;20037;-80
2022/06/14 00:51:21;;;;;;;4.50;2.08;;;;;;;;;;4994399;28;20390;-79
2022/06/14 00:54:10;;;;;;;7.35;2.65;;;;;;;;;;4994035;28;20026;-80
2022/06/14 00:56:46;;;;;;;4.00;2.30;;;;;;;;;;4994447;28;20018;-79
2022/06/14 00:59:17;;;;;;;4.30;2.10;;;;;;;;;;4994156;28;20022;-80
2022/06/14 01:01:43;;;;;;;3.97;2.33;;;;;;;;;;4990881;28;20041;-80
2022/06/14 01:04:15;;;;;;;6.07;2.20;;;;;;;;;;4993516;28;20035;-79
2022/06/14 01:06:53;;;;;;;5.85;2.25;;;;;;;;;;4994019;28;20022;-80
2022/06/14 01:09:23;;;;;;;4.38;2.60;;;;;;;;;;5008980;28;20487;-80
2022/06/14 01:11:51;;;;;;;6.65;2.47;;;;;;;;;;4993764;28;20034;-80
2022/06/14 01:14:20;;;;;;;5.05;2.22;;;;;;;;;;4994010;28;20023;-80
2022/06/14 01:16:47;;;;;;;4.80;2.22;;;;;;;;;;4993916;28;20029;-79
2022/06/14 01:19:23;;;;;;;3.03;2.00;;;;;;;;;;4993659;28;20026;-80
2022/06/14 01:21:53;;;;;;;5.93;2.60;;;;;;;;;;4993514;28;20030;-79
2022/06/14 01:24:21;;;;;;;3.45;2.13;;;;;;;;;;4993389;28;20042;-80
2022/06/14 01:26:48;;;;;;;5.15;2.40;;;;;;;;;;4993619;28;20026;-80
2022/06/14 01:29:16;;;;;;;5.82;2.50;;;;;;;;;;4991803;28;20030;-80
2022/06/14 01:31:42;;;;;;;6.57;2.40;;;;;;;;;;4993734;28;20092;-80
2022/06/14 01:34:09;;;;;;;4.75;2.58;;;;;;;;;;4993345;28;20027;-80
2022/06/14 01:36:37;;;;;;;6.97;2.20;;;;;;;;;;4992223;28;20030;-80
2022/06/14 01:39:05;;;;;;;4.80;2.45;;;;;;;;;;4993105;28;20026;-80
2022/06/14 01:41:32;;;;;;;4.80;2.33;;;;;;;;;;4993268;28;20044;-80
2022/06/14 01:44:14;;;;;;;6.40;2.42;;;;;;;;;;4993241;28;20026;-80
2022/06/14 01:47:04;;;;;;;5.10;2.38;;;;;;;;;;4989395;28;20042;-80
2022/06/14 01:52:53;;;;;;;4.63;2.40;;;;;;;;;;4987731;28;20042;-80
2022/06/14 01:55:19;;;;;;;7.63;2.67;;;;;;;;;;4971885;28;20045;-80
2022/06/14 01:58:01;;;;;;;3.85;2.08;;;;;;;;;;4985185;28;20023;-80
2022/06/14 02:00:30;;;;;;;4.38;2.10;;;;;;;;;;4989089;28;20046;-80
2022/06/14 02:04:37;;;;;;;3.88;2.30;;;;;;;;;;4989774;28;20037;-80
2022/06/14 02:05:46;;;;;;;4.28;2.33;;;;;;;;;;4989570;28;20033;-80
2022/06/14 02:08:16;;;;;;;2.92;2.33;;;;;;;;;;4972799;28;20040;-80
2022/06/14 02:10:56;;;;;;;4.18;2.58;;;;;;;;;;4991102;28;20042;-80
2022/06/14 02:13:28;;;;;;;6.40;2.20;;;;;;;;;;4990946;28;20042;-80
2022/06/14 02:16:07;;;;;;;5.07;2.42;;;;;;;;;;4989042;28;20027;-79
2022/06/14 02:18:43;;;;;;;5.03;2.50;;;;;;;;;;4989308;28;20523;-79
2022/06/14 02:21:29;;;;;;;8.95;2.55;;;;;;;;;;4989167;28;20030;-80
2022/06/14 02:23:58;;;;;;;4.72;2.42;;;;;;;;;;4989161;28;20042;-80
2022/06/14 02:26:28;;;;;;;7.57;2.55;;;;;;;;;;4991317;28;20038;-80
2022/06/14 02:28:58;;;;;;;3.92;2.50;;;;;;;;;;4992488;28;20034;-80
2022/06/14 02:31:34;;;;;;;5.30;2.50;;;;;;;;;;4992829;28;20040;-80
2022/06/14 02:34:02;;;;;;;7.82;2.58;;;;;;;;;;5007389;28;20395;-80
2022/06/14 02:36:31;;;;;;;5.85;2.60;;;;;;;;;;4992419;28;20023;-80
2022/06/14 02:39:01;;;;;;;5.93;2.47;;;;;;;;;;4992215;28;20033;-80
2022/06/14 02:41:48;;;;;;;7.22;2.30;;;;;;;;;;4991344;28;20020;-79
2022/06/14 02:44:19;;;;;;;4.80;2.47;;;;;;;;;;4979056;28;20035;-80
2022/06/14 02:46:48;;;;;;;4.65;2.72;;;;;;;;;;4989124;28;20022;-80
2022/06/14 02:49:26;;;;;;;6.22;2.72;;;;;;;;;;4992343;28;20026;-79
2022/06/14 02:51:59;;;;;;;5.20;2.45;;;;;;;;;;4992109;28;20030;-80
2022/06/14 02:54:29;;;;;;;5.53;2.55;;;;;;;;;;4991964;28;20018;-79
2022/06/14 02:57:00;;;;;;;9.48;2.63;;;;;;;;;;5006940;28;20026;-80
2022/06/14 02:59:26;;;;;;;6.65;2.90;;;;;;;;;;4991707;28;20030;-79
2022/06/14 03:01:57;;;;;;;5.95;2.70;;;;;;;;;;4992147;28;20049;-79
2022/06/14 03:04:32;;;;;;;4.32;2.40;;;;;;;;;;4992383;28;20038;-80
2022/06/14 03:07:07;;;;;;;6.22;2.75;;;;;;;;;;4992092;28;20018;-80
2022/06/14 03:09:36;;;;;;;6.18;2.53;;;;;;;;;;4992017;28;20038;-80
2022/06/14 03:12:06;;;;;;;8.70;2.60;;;;;;;;;;4991794;28;20495;-80
2022/06/14 03:14:47;;;;;;;6.38;2.80;;;;;;;;;;4991965;28;20033;-80
2022/06/14 03:17:28;;;;;;;8.15;2.63;;;;;;;;;;4976525;28;20026;-80
2022/06/14 03:19:58;;;;;;;3.35;2.38;;;;;;;;;;4989512;28;20376;-79
2022/06/14 03:22:24;;;;;;;4.97;2.45;;;;;;;;;;4992450;28;20039;-79
2022/06/14 03:24:56;;;;;;;8.68;2.80;;;;;;;;;;4991562;28;20041;-80
2022/06/14 03:27:38;;;;;;;10.90;3.20;;;;;;;;;;4991779;28;20018;-79
2022/06/14 03:30:30;;;;;;;7.05;2.72;;;;;;;;;;4991662;28;20040;-80
2022/06/14 03:33:08;;;;;;;5.18;2.72;;;;;;;;;;4991650;28;20038;-80
2022/06/14 03:35:38;;;;;;;7.03;2.75;;;;;;;;;;4991837;28;20497;-79
2022/06/14 03:38:27;;;;;;;5.63;2.70;;;;;;;;;;4991751;28;20398;-79
2022/06/14 03:40:55;;;;;;;6.03;3.03;;;;;;;;;;4988764;28;20062;-80
2022/06/14 03:43:21;;;;;;;7.25;2.85;;;;;;;;;;4991867;28;20057;-80
2022/06/14 03:45:52;;;;;;;5.97;2.80;;;;;;;;;;4991607;28;20491;-79
2022/06/14 03:48:19;;;;;;;5.43;2.65;;;;;;;;;;4991494;28;20028;-80
2022/06/14 03:50:55;;;;;;;7.50;2.95;;;;;;;;;;4991614;28;20038;-79
2022/06/14 03:53:24;;;;;;;5.47;2.47;;;;;;;;;;4979498;28;20017;-80
2022/06/14 03:55:56;;;;;;;4.82;2.35;;;;;;;;;;4995408;28;20037;-79
2022/06/14 03:58:29;;;;;;;7.07;2.75;;;;;;;;;;4995099;28;20030;-79
2022/06/14 04:01:10;;;;;;;11.77;2.95;;;;;;;;;;4995045;28;20368;-80
2022/06/14 04:03:36;;;;;;;;;;;;;;;;;;4995418;28;20019;-80
2022/06/14 04:06:09;;;;;;;4.63;3.10;;;;;;;;;;4994900;28;19909;-79
2022/06/14 04:08:56;;;;;;;5.25;2.72;;;;;;;;;;4995307;28;20032;-79
2022/06/14 04:11:41;;;;;;;5.63;2.85;;;;;;;;;;4980369;28;20049;-79
2022/06/14 04:14:11;;;;;;;7.55;3.40;;;;;;;;;;5009675;28;20030;-79
2022/06/14 04:16:47;;;;;;;4.68;2.95;;;;;;;;;;4991253;28;20518;-79
2022/06/14 04:19:22;;;;;;;7.28;2.97;;;;;;;;;;4995084;28;20513;-79
2022/06/14 04:21:48;;;;;;;6.57;2.63;;;;;;;;;;4994648;28;20483;-79
2022/06/14 04:24:15;;;;;;;4.50;3.00;;;;;;;;;;4994741;28;20031;-78
2022/06/14 04:26:41;;;;;;;4.32;2.63;;;;;;;;;;4994494;28;20372;-80
2022/06/14 04:29:18;;;;;;;4.10;2.42;;;;;;;;;;4994506;28;20030;-80
2022/06/14 04:32:04;;;;;;;5.40;3.00;;;;;;;;;;4991378;28;20759;-80
2022/06/14 04:34:36;;;;;;;6.82;2.75;;;;;;;;;;4993671;28;20053;-79
2022/06/14 04:37:09;;;;;;;10.10;2.90;;;;;;;;;;4994444;28;20034;-79
2022/06/14 04:39:45;;;;;;;4.25;2.75;;;;;;;;;;4993282;28;20030;-80
2022/06/14 04:42:13;;;;;;;6.13;3.20;;;;;;;;;;4993950;28;20022;-79
2022/06/14 04:44:46;;;;;;;4.90;2.90;;;;;;;;;;4994537;28;20022;-80
2022/06/14 04:47:18;;;;;;;7.68;3.10;;;;;;;;;;4994358;28;20044;-79
2022/06/14 04:49:51;;;;;;;6.95;3.15;;;;;;;;;;4991056;28;20062;-79
2022/06/14 04:52:25;;;;;;;8.50;2.50;;;;;;;;;;5010748;28;20096;-79
2022/06/14 04:55:21;;;;;;;7.22;2.90;;;;;;;;;;4991511;28;20015;-79
2022/06/14 04:57:51;;;;;;;6.63;2.53;;;;;;;;;;4993500;28;20046;-79
2022/06/14 05:00:37;;;;;;;9.48;2.90;;;;;;;;;;4992990;28;20026;-79
2022/06/14 05:03:16;;;;;;;6.80;3.08;;;;;;;;;;4993774;28;20022;-79
2022/06/14 05:05:54;;;;;;;4.80;2.78;;;;;;;;;;4992858;28;20010;-80
2022/06/14 05:08:23;;;;;;;4.82;3.05;;;;;;;;;;4979604;28;20025;-79
2022/06/14 05:10:59;;;;;;;5.68;2.30;;;;;;;;;;4993663;28;20056;-80
2022/06/14 05:13:35;;;;;;;6.88;3.05;;;;;;;;;;4992123;28;20488;-79
2022/06/14 05:16:04;;;;;;;6.40;2.97;;;;;;;;;;4992556;28;20048;-80
2022/06/14 05:18:34;;;;;;;6.22;2.92;;;;;;;;;;4993613;28;20030;-79
2022/06/14 05:21:04;;;;;;;6.80;2.70;;;;;;;;;;5008698;28;20021;-80
2022/06/14 05:23:49;;;;;;;10.20;2.90;;;;;;;;;;4992987;28;20408;-80
2022/06/14 05:26:19;;;;;;;8.25;3.05;;;;;;;;;;4978341;28;20505;-79
2022/06/14 05:29:04;;;;;;;6.05;2.67;;;;;;;;;;4990098;28;20019;-79
2022/06/14 05:31:36;;;;;;;5.82;2.45;;;;;;;;;;4993896;28;20068;-80
2022/06/14 05:34:29;;;;;;;5.20;2.78;;;;;;;;;;4993417;28;20537;-79
2022/06/14 05:36:59;;;;;;;5.28;2.90;;;;;;;;;;4993175;28;20036;-80
2022/06/14 05:39:35;;;;;;;5.55;2.90;;;;;;;;;;4991719;28;20048;-79
2022/06/14 05:42:06;;;;;;;4.55;2.75;;;;;;;;;;4993145;28;20011;-80
2022/06/14 05:44:32;;;;;;;;;;;;;;;;;;4992724;28;20022;-80
2022/06/14 05:47:02;;;;;;;4.55;2.75;;;;;;;;;;4993364;28;19906;-80
2022/06/14 05:49:30;;;;;;;3.47;2.33;;;;;;;;;;4990919;28;20042;-80
2022/06/14 05:51:59;;;;;;;5.35;2.83;;;;;;;;;;4992465;28;20018;-79
2022/06/14 05:54:26;;;;;;;5.05;2.63;;;;;;;;;;4992155;28;20072;-79
2022/06/14 05:56:59;;;;;;;11.50;3.00;;;;;;;;;;4992441;28;20509;-79
2022/06/14 05:59:36;;;;;;;5.32;2.20;;;;;;;;;;4989898;28;20381;-79
2022/06/14 06:02:05;;;;;;;6.13;2.90;;;;;;;;;;4991498;28;20052;-79
2022/06/14 06:04:35;;;;;;;4.65;2.83;;;;;;;;;;4992979;28;20033;-79
2022/06/14 06:07:04;;;;;;;7.22;2.90;;;;;;;;;;4991792;28;20037;-79
2022/06/14 06:09:36;;;;;;;6.03;2.72;;;;;;;;;;4991417;28;20028;-79
2022/06/14 06:12:29;;;;;;;5.40;2.67;;;;;;;;;;4991762;28;20026;-80
2022/06/14 06:15:08;;;;;;;6.85;2.90;;;;;;;;;;4990845;28;20406;-80
2022/06/14 06:17:42;;;;;;;10.40;2.70;;;;;;;;;;4991408;28;20033;-78
2022/06/14 06:20:27;;;;;;;6.45;3.05;;;;;;;;;;5002821;28;20080;-79
2022/06/14 06:22:57;;;;;;;10.27;3.03;;;;;;;;;;4990554;28;20022;-79
2022/06/14 06:25:32;;;;;;;9.17;2.50;;;;;;;;;;4996662;28;20408;-79
2022/06/14 06:27:58;;;;;;;7.50;2.75;;;;;;;;;;4993386;28;20283;-79
2022/06/14 06:30:28;;;;;;;11.57;2.92;;;;;;;;;;4988751;28;20030;-79
2022/06/14 06:32:55;;;;;;;18.02;3.03;;;;;;;;;;4990684;28;20442;-79
2022/06/14 06:35:24;;;;;;;7.13;2.80;;;;;;;;;;4992098;28;20022;-79
2022/06/14 06:37:55;;;;;;;10.70;3.00;;;;;;;;;;4991922;28;20029;-79
2022/06/14 06:40:23;;;;;;;8.27;2.47;;;;;;;;;;4991103;28;20026;-80
2022/06/14 06:42:56;;;;;;;9.65;2.60;;;;;;;;;;4990889;28;20026;-80
2022/06/14 06:45:25;;;;;;;7.30;2.45;;;;;;;;;;4991657;28;20018;-79
2022/06/14 06:47:52;;;;;;;7.17;2.77;;;;;;;;;;4990738;28;20040;-80
2022/06/14 06:50:23;;;;;;;6.22;2.55;;;;;;;;;;4990141;28;20034;-80
2022/06/14 06:52:59;;;;;;;5.50;2.67;;;;;;;;;;4991846;28;20026;-80
2022/06/14 06:55:44;;;;;;;6.38;2.60;;;;;;;;;;4990370;28;20022;-81
2022/06/14 06:58:16;;;;;;;8.60;2.45;;;;;;;;;;4990915;28;20041;-80
2022/06/14 07:00:43;;;;;;;6.25;2.22;;;;;;;;;;4991023;28;20027;-80
2022/06/14 07:03:14;;;;;;;5.03;2.20;;;;;;;;;;4991373;28;20018;-80
2022/06/14 07:05:41;;;;;;;4.88;2.42;;;;;;;;;;4991062;28;20023;-80
2022/06/14 07:08:16;;;;;;;14.52;2.88;;;;;;;;;;4989124;28;20507;-80
2022/06/14 07:10:53;;;;;;;5.10;2.13;;;;;;;;;;4986591;28;20035;-81
2022/06/14 07:13:39;;;;;;;7.93;2.47;;;;;;;;;;4991676;28;20038;-80
2022/06/14 07:16:14;;;;;;;9.95;2.33;;;;;;;;;;4993269;28;20495;-80
2022/06/14 07:18:43;;;;;;;4.53;2.67;;;;;;;;;;4990580;28;20030;-80
2022/06/14 07:21:13;;;;;;;6.15;2.75;;;;;;;;;;4990246;28;20033;-80
2022/06/14 07:23:45;;;;;;;6.72;2.10;;;;;;;;;;4990874;28;20406;-80
2022/06/14 07:26:19;;;;;;;7.22;2.40;;;;;;;;;;4991475;28;20036;-80
2022/06/14 07:28:52;;;;;;;8.75;2.45;;;;;;;;;;4990580;28;20402;-81
2022/06/14 07:31:25;;;;;;;5.75;2.17;;;;;;;;;;4995579;28;20046;-80
2022/06/14 07:33:52;;;;;;;4.50;2.40;;;;;;;;;;4994869;28;20018;-80
2022/06/14 07:36:27;;;;;;;7.63;2.30;;;;;;;;;;4994412;28;20026;-81
2022/06/14 07:39:02;;;;;;;5.70;2.10;;;;;;;;;;4992657;28;20023;-81
2022/06/14 07:41:34;;;;;;;9.35;2.42;;;;;;;;;;4991116;28;20027;-81
2022/06/14 07:44:19;;;;;;;6.88;2.20;;;;;;;;;;4993559;28;20026;-82
2022/06/14 07:47:02;;;;;;;6.25;2.35;;;;;;;;;;4990530;28;20064;-81
2022/06/14 07:49:39;;;;;;;4.53;2.10;;;;;;;;;;4991641;28;20041;-82
2022/06/14 07:52:29;;;;;;;8.48;2.22;;;;;;;;;;4991868;28;20487;-81
2022/06/14 07:55:05;;;;;;;6.20;2.20;;;;;;;;;;4992760;28;20072;-78
2022/06/14 07:57:34;;;;;;;4.53;2.30;;;;;;;;;;4992931;28;20034;-79
2022/06/14 08:01:07;;;;;;;5.43;2.25;;;;;;;;;;4991690;28;20064;-78
2022/06/14 08:02:51;;;;;;;5.00;2.22;;;;;;;;;;4992974;28;20518;-79
2022/06/14 08:05:20;;;;;;;5.10;2.40;;;;;;;;;;4993284;28;20029;-79
2022/06/14 08:07:48;;;;;;;3.80;1.83;;;;;;;;;;4990623;28;20033;-79
2022/06/14 08:10:18;;;;;;;5.38;2.10;;;;;;;;;;4993162;28;20495;-80
2022/06/14 08:12:44;;;;;;;;;;;;;;;;;;4993788;28;20079;-79
2022/06/14 08:15:13;;;;;;;4.25;2.17;;;;;;;;;;4993159;28;19910;-80
2022/06/14 08:17:46;;;;;;;3.17;2.10;;;;;;;;;;4993283;28;20034;-79
2022/06/14 08:20:32;;;;;;;4.82;2.50;;;;;;;;;;4992576;28;20042;-79
2022/06/14 08:23:01;;;;;;;3.75;1.90;;;;;;;;;;4989672;28;20435;-81
2022/06/14 08:25:29;;;;;;;3.10;1.95;;;;;;;;;;4990114;28;20056;-78
2022/06/14 08:28:02;;;;;;;6.43;2.40;;;;;;;;;;4991590;28;20035;-79
2022/06/14 08:30:31;;;;;;;3.38;2.00;;;;;;;;;;4991552;28;20046;-80
2022/06/14 08:33:04;;;;;;;4.83;2.07;;;;;;;;;;4975158;28;20580;-79
2022/06/14 08:35:35;;;;;;;6.00;2.03;;;;;;;;;;4978153;28;20300;-79
2022/06/14 08:38:05;;;;;;;6.18;2.30;;;;;;;;;;4988171;28;20057;-80
2022/06/14 08:40:58;;;;;;;6.93;2.15;;;;;;;;;;4993034;28;20038;-77
2022/06/14 08:43:32;;;;;;;6.00;2.10;;;;;;;;;;4913435;29;20051;-79
2022/06/14 08:45:58;;;;;;;7.25;2.20;;;;;;;;;;4914615;29;20024;-78
2022/06/14 08:48:33;;;;;;;4.50;2.40;;;;;;;;;;4914266;29;20076;-79
2022/06/14 08:51:15;;;;;;;5.18;2.33;;;;;;;;;;4916112;29;20040;-78
2022/06/14 08:53:59;;;;;;;5.63;2.33;;;;;;;;;;4915787;29;20032;-79
2022/06/14 08:56:26;;;;;;;3.80;2.25;;;;;;;;;;4927100;29;20031;-78
2022/06/14 08:58:58;;;;;;;5.57;2.13;;;;;;;;;;4913817;29;20036;-78
2022/06/14 09:01:30;;;;;;;6.68;2.63;;;;;;;;;;4938178;29;20046;-78
2022/06/14 09:04:09;;;;;;;9.60;2.20;;;;;;;;;;4933425;29;20090;-78
2022/06/14 09:06:51;;;;;;;6.28;2.30;;;;;;;;;;4936007;29;20068;-77
2022/06/14 09:09:33;;;;;;;5.13;2.25;;;;;;;;;;4928733;29;20024;-78
2022/06/14 09:11:59;;;;;;;3.75;2.42;;;;;;;;;;4922939;29;20042;-79
2022/06/14 09:14:44;;;;;;;6.10;2.60;;;;;;;;;;4915449;29;20038;-79
2022/06/14 09:17:29;;;;;;;5.38;2.40;;;;;;;;;;4931503;29;20032;-78
2022/06/14 09:19:55;;;;;;;4.18;2.60;;;;;;;;;;4952114;28;20050;-78
2022/06/14 09:22:45;;;;;;;5.47;2.33;;;;;;;;;;4992645;28;20041;-79
2022/06/14 09:25:30;;;;;;;6.13;2.38;;;;;;;;;;5029931;28;20053;-78
2022/06/14 09:27:56;;;;;;;7.00;2.30;;;;;;;;;;5030977;28;20052;-79
2022/06/14 09:30:42;;;;;;;5.47;2.33;;;;;;;;;;5025532;28;20055;-65
2022/06/14 09:33:14;;;;;;;6.75;2.20;;;;;;;;;;4973870;28;20088;-65
2022/06/14 09:35:53;;;;;;;6.05;2.15;;;;;;;;;;4966728;28;20163;-64
2022/06/14 09:38:30;;;;;;;4.73;1.80;;;;;;;;;;4974671;28;20037;-65
2022/06/14 09:41:07;;;;;;;6.53;2.35;;;;;;;;;;4970032;28;20478;-64
2022/06/14 09:43:39;;;;;;;4.00;2.00;;;;;;;;;;4969033;28;20037;-64
2022/06/14 09:46:24;;;;;;;4.03;2.10;;;;;;;;;;4967577;28;20049;-65
2022/06/14 09:48:53;;;;;;;5.03;2.40;;;;;;;;;;4975573;28;20038;-66
2022/06/14 09:51:38;;;;;;;4.32;1.90;;;;;;;;;;4979436;28;20486;-66
2022/06/14 09:54:23;;;;;;;3.60;2.35;;;;;;;;;;4971551;28;20033;-66
2022/06/14 09:57:09;;;;;;;4.40;2.40;;;;;;;;;;4973143;28;20058;-66
2022/06/14 09:59:58;;;;;;;8.43;2.42;;;;;;;;;;4961971;28;20050;-66
2022/06/14 10:02:34;;;;;;;4.63;2.38;;;;;;;;;;4941199;28;20036;-65
2022/06/14 10:05:19;;;;;;;3.92;1.92;;;;;;;;;;4932362;29;20035;-66
2022/06/14 10:08:17;;;;;;;4.72;2.45;;;;;;;;;;4927691;29;20042;-66
2022/06/14 10:11:02;;;;;;;4.35;2.30;;;;;;;;;;4976956;28;20572;-66
2022/06/14 10:13:28;;;;;;;3.58;2.30;;;;;;;;;;4986761;28;20051;-66
2022/06/14 10:15:54;;;;;;;4.93;2.30;;;;;;;;;;4987549;28;20037;-67
2022/06/14 10:18:21;;;;;;;5.38;2.17;;;;;;;;;;4985187;28;20137;-66
2022/06/14 10:20:53;;;;;;;7.97;2.35;;;;;;;;;;4985719;28;20030;-66
2022/06/14 10:23:32;;;;;;;9.32;1.98;;;;;;;;;;4972561;28;20459;-66
2022/06/14 10:28:58;;;;;;;5.93;2.10;;;;;;;;;;4988688;28;20146;-67
2022/06/14 10:31:32;;;;;;;5.22;1.98;;;;;;;;;;4989680;28;20495;-66
2022/06/14 10:34:14;;;;;;;8.23;2.13;;;;;;;;;;4986161;28;20034;-66
2022/06/14 10:36:40;;;;;;;11.15;2.47;;;;;;;;;;4986465;28;20141;-65
2022/06/14 10:39:18;;;;;;;8.75;2.22;;;;;;;;;;4985898;28;20043;-67
2022/06/14 10:41:47;;;;;;;9.52;2.22;;;;;;;;;;4986335;28;20632;-66
2022/06/14 10:44:19;;;;;;;11.80;2.53;;;;;;;;;;4972126;28;20026;-66
2022/06/14 10:46:55;;;;;;;7.88;2.30;;;;;;;;;;4974738;28;20153;-66
2022/06/14 10:49:40;;;;;;;6.45;2.05;;;;;;;;;;4990492;28;20491;-66
2022/06/14 10:52:25;;;;;;;7.18;2.40;;;;;;;;;;4991075;28;20811;-66
2022/06/14 10:54:54;;;;;;;9.30;2.42;;;;;;;;;;4991498;28;20030;-65
2022/06/14 10:57:43;;;;;;;10.30;3.22;;;;;;;;;;4990449;28;20030;-67
2022/06/14 11:00:09;;;;;;;21.88;2.67;;;;;;;;;;4991449;28;20068;-68
2022/06/14 11:02:45;;;;;;;11.10;2.88;;;;;;;;;;4990884;28;20035;-66
2022/06/14 11:05:14;;;;;;;7.50;2.42;;;;;;;;;;4991555;28;20026;-65
2022/06/14 11:07:59;;;;;;;9.55;2.60;;;;;;;;;;4991579;28;20085;-65
2022/06/14 11:10:35;;;;;;;8.93;2.25;;;;;;;;;;5007004;28;20085;-67
2022/06/14 11:13:19;;;;;;;9.45;2.60;;;;;;;;;;4991430;28;20026;-67
2022/06/14 11:15:53;;;;;;;6.28;2.55;;;;;;;;;;4990121;28;20023;-69
2022/06/14 11:18:25;;;;;;;12.05;2.55;;;;;;;;;;4991673;28;20032;-69
2022/06/14 11:20:58;;;;;;;8.07;2.40;;;;;;;;;;4991429;28;20024;-65
2022/06/14 11:23:53;;;;;;;8.57;2.35;;;;;;;;;;4991546;28;20026;-68
2022/06/14 11:26:27;;;;;;;18.50;2.42;;;;;;;;;;4976398;28;20092;-69
2022/06/14 11:29:01;;;;;;;7.72;2.38;;;;;;;;;;4991768;28;20034;-68
2022/06/14 11:31:46;;;;;;;5.30;2.05;;;;;;;;;;4991346;28;20054;-64
2022/06/14 11:34:31;;;;;;;4.53;2.10;;;;;;;;;;4989919;28;20026;-72
2022/06/14 11:37:16;;;;;;;10.95;2.38;;;;;;;;;;4986782;28;20403;-71
2022/06/14 11:39:45;;;;;;;9.52;2.53;;;;;;;;;;4993029;28;20030;-71
2022/06/14 11:42:30;;;;;;;14.48;2.80;;;;;;;;;;4989652;28;20442;-71
2022/06/14 11:45:00;;;;;;;10.85;2.70;;;;;;;;;;4989282;28;20026;-71
2022/06/14 11:47:26;;;;;;;6.93;2.33;;;;;;;;;;4988845;28;20019;-72
2022/06/14 11:49:57;;;;;;;9.10;2.20;;;;;;;;;;4988057;28;20057;-72
2022/06/14 11:52:42;;;;;;;12.93;2.75;;;;;;;;;;4991480;28;20034;-67
2022/06/14 11:55:08;;;;;;;9.93;2.47;;;;;;;;;;4987491;28;20030;-71
2022/06/14 11:57:41;;;;;;;7.63;2.28;;;;;;;;;;4989375;28;20037;-69
2022/06/14 12:00:14;;;;;;;6.68;2.13;;;;;;;;;;4988397;28;20038;-70
2022/06/14 12:02:43;;;;;;;10.68;2.50;;;;;;;;;;4989042;28;20025;-71
2022/06/14 12:05:16;;;;;;;8.50;2.53;;;;;;;;;;4988980;28;20121;-71
2022/06/14 12:07:47;;;;;;;11.02;2.47;;;;;;;;;;4989071;28;20029;-70
2022/06/14 12:10:16;;;;;;;6.07;2.30;;;;;;;;;;4987871;28;20570;-69
2022/06/14 12:12:43;;;;;;;7.45;2.45;;;;;;;;;;4989069;28;20029;-70
2022/06/14 12:15:12;;;;;;;8.65;2.40;;;;;;;;;;4992908;28;20048;-68
2022/06/14 12:17:42;;;;;;;7.40;2.30;;;;;;;;;;4992343;28;20048;-69
2022/06/14 12:20:09;;;;;;;7.47;2.10;;;;;;;;;;4990939;28;20661;-68
2022/06/14 12:22:43;;;;;;;9.63;2.80;;;;;;;;;;4993539;28;20031;-71
2022/06/14 12:28:05;;;;;;;6.32;2.08;;;;;;;;;;5007803;28;20030;-68
2022/06/14 12:30:33;;;;;;;9.90;2.20;;;;;;;;;;4992499;28;20466;-71
2022/06/14 12:33:02;;;;;;;8.88;2.35;;;;;;;;;;4989499;28;20506;-71
2022/06/14 12:35:30;;;;;;;9.77;2.03;;;;;;;;;;4987119;28;20164;-70
2022/06/14 12:38:06;;;;;;;7.10;2.22;;;;;;;;;;4990495;28;20031;-70
2022/06/14 12:40:33;;;;;;;12.32;2.40;;;;;;;;;;4992323;28;20491;-71
2022/06/14 12:43:02;;;;;;;9.10;2.50;;;;;;;;;;4991705;28;20038;-70
2022/06/14 12:45:28;;;;;;;13.77;2.40;;;;;;;;;;4992801;28;20526;-71
2022/06/14 12:47:55;;;;;;;8.05;2.05;;;;;;;;;;4990501;28;20037;-70
2022/06/14 12:50:25;;;;;;;13.77;2.40;;;;;;;;;;4992567;28;20038;-70
2022/06/14 12:52:54;;;;;;;7.20;2.45;;;;;;;;;;4991887;28;20035;-70
2022/06/14 12:55:35;;;;;;;7.22;2.40;;;;;;;;;;4992941;28;20395;-71
2022/06/14 12:58:01;;;;;;;;;;;;;;;;;;4992539;28;20037;-70
2022/06/14 13:00:30;;;;;;;7.00;2.38;;;;;;;;;;4992677;28;19920;-71
2022/06/14 13:02:59;;;;;;;8.52;2.42;;;;;;;;;;4992569;28;20022;-70
2022/06/14 13:05:28;;;;;;;7.22;2.22;;;;;;;;;;4993437;28;20036;-70
2022/06/14 13:08:13;;;;;;;10.15;2.28;;;;;;;;;;4992588;28;20026;-70
2022/06/14 13:10:39;;;;;;;13.68;2.63;;;;;;;;;;4993430;28;20034;-69
2022/06/14 13:13:08;;;;;;;9.18;2.58;;;;;;;;;;4993315;28;20026;-70
2022/06/14 13:15:44;;;;;;;6.30;2.10;;;;;;;;;;4991928;28;20070;-71
2022/06/14 13:18:19;;;;;;;7.03;2.20;;;;;;;;;;4989871;28;20099;-71
2022/06/14 13:20:48;;;;;;;7.05;2.63;;;;;;;;;;4990258;28;20034;-70
2022/06/14 13:23:21;;;;;;;10.40;2.50;;;;;;;;;;4991735;28;20030;-71
2022/06/14 13:25:54;;;;;;;10.07;2.88;;;;;;;;;;5014654;28;20048;-71
2022/06/14 13:28:38;;;;;;;8.52;2.65;;;;;;;;;;4992108;28;20365;-71
2022/06/14 13:31:04;;;;;;;4.70;2.10;;;;;;;;;;4990630;28;20038;-72
2022/06/14 13:33:34;;;;;;;5.40;2.70;;;;;;;;;;4991703;28;20026;-71
2022/06/14 13:36:19;;;;;;;6.90;2.55;;;;;;;;;;4991704;28;20030;-71
2022/06/14 13:38:57;;;;;;;7.63;2.38;;;;;;;;;;4987431;28;20457;-72
2022/06/14 13:41:27;;;;;;;10.25;2.58;;;;;;;;;;4992141;28;20044;-72
2022/06/14 13:43:55;;;;;;;10.43;2.40;;;;;;;;;;4989520;28;20029;-72
2022/06/14 13:46:31;;;;;;;6.13;2.70;;;;;;;;;;4993119;28;20036;-72
2022/06/14 13:49:16;;;;;;;5.80;2.30;;;;;;;;;;4990875;28;20030;-71
2022/06/14 13:51:55;;;;;;;13.93;2.60;;;;;;;;;;4991879;28;20030;-71
2022/06/14 13:54:40;;;;;;;6.05;2.17;;;;;;;;;;4992107;28;20019;-71
2022/06/14 13:57:15;;;;;;;6.13;2.03;;;;;;;;;;4996563;28;20476;-71
2022/06/14 13:59:43;;;;;;;9.80;2.47;;;;;;;;;;4990959;28;20033;-72
2022/06/14 14:02:24;;;;;;;7.35;2.55;;;;;;;;;;4992649;28;20034;-72
2022/06/14 14:04:58;;;;;;;7.82;2.47;;;;;;;;;;4988893;28;20398;-72
2022/06/14 14:07:42;;;;;;;9.65;2.45;;;;;;;;;;4991738;28;20096;-72
2022/06/14 14:10:11;;;;;;;5.90;2.35;;;;;;;;;;4992620;28;20037;-72
2022/06/14 14:12:42;;;;;;;6.47;2.30;;;;;;;;;;4991414;28;20038;-72
2022/06/14 14:15:11;;;;;;;9.70;2.50;;;;;;;;;;4991846;28;20040;-72
2022/06/14 14:17:40;;;;;;;10.07;2.75;;;;;;;;;;4999645;28;20034;-72
2022/06/14 14:20:18;;;;;;;8.47;2.70;;;;;;;;;;4998805;28;20040;-72
2022/06/14 14:22:50;;;;;;;10.35;2.30;;;;;;;;;;4998562;28;20424;-72
2022/06/14 14:25:22;;;;;;;9.77;2.92;;;;;;;;;;4991031;28;20054;-71
2022/06/14 14:27:56;;;;;;;13.90;2.95;;;;;;;;;;4991787;28;20030;-71
2022/06/14 14:30:27;;;;;;;5.35;2.42;;;;;;;;;;4992478;28;20033;-72
2022/06/14 14:33:22;;;;;;;8.27;2.40;;;;;;;;;;4999742;28;20029;-72
2022/06/14 14:35:54;;;;;;;8.90;2.53;;;;;;;;;;4985759;28;20038;-72
2022/06/14 14:38:43;;;;;;;10.60;2.90;;;;;;;;;;4995098;28;20025;-72
2022/06/14 14:41:32;;;;;;;9.00;2.78;;;;;;;;;;5003418;28;20053;-72
2022/06/14 14:44:03;;;;;;;12.23;3.00;;;;;;;;;;4985457;28;20023;-72
2022/06/14 14:46:33;;;;;;;9.60;2.70;;;;;;;;;;4992400;28;20026;-68
2022/06/14 14:49:25;;;;;;;11.40;2.60;;;;;;;;;;4990841;28;20394;-68
2022/06/14 14:52:09;;;;;;;10.38;2.85;;;;;;;;;;4990958;28;20069;-68
2022/06/14 14:54:38;;;;;;;11.13;3.10;;;;;;;;;;4990603;28;20416;-69
2022/06/14 14:57:05;;;;;;;12.85;2.83;;;;;;;;;;4991455;28;20026;-68
2022/06/14 14:59:37;;;;;;;13.43;2.75;;;;;;;;;;4991687;28;20011;-67
2022/06/14 15:05:20;;;;;;;10.07;2.92;;;;;;;;;;4989605;28;20080;-67
2022/06/14 15:07:52;;;;;;;6.50;2.70;;;;;;;;;;4987733;28;20019;-66
2022/06/14 15:10:22;;;;;;;13.38;3.28;;;;;;;;;;4990360;28;20378;-66
2022/06/14 15:12:50;;;;;;;15.30;2.63;;;;;;;;;;4991642;28;20026;-68
2022/06/14 15:15:22;;;;;;;7.90;2.83;;;;;;;;;;4990231;28;20392;-67
2022/06/14 15:20:47;;;;;;;14.50;3.10;;;;;;;;;;4978642;28;20390;-67
2022/06/14 15:23:26;;;;;;;7.03;2.70;;;;;;;;;;4995987;28;20022;-68
2022/06/14 15:25:52;;;;;;;12.52;2.60;;;;;;;;;;4988170;28;20034;-67
2022/06/14 15:28:19;;;;;;;7.25;2.55;;;;;;;;;;4989033;28;20033;-67
2022/06/14 15:30:50;;;;;;;13.68;3.00;;;;;;;;;;4991107;28;20440;-76
2022/06/14 15:33:27;;;;;;;15.77;2.42;;;;;;;;;;4987466;28;20453;-73
2022/06/14 15:35:55;;;;;;;10.98;3.03;;;;;;;;;;4991075;28;20491;-73
2022/06/14 15:38:31;;;;;;;11.13;2.70;;;;;;;;;;4991388;28;20027;-73